createdAt,value
2019-03-29T00:01:51.745Z,85.27
2019-03-29T00:04:21.801Z,85.51
2019-03-29T00:06:51.837Z,85.34
2019-03-29T00:12:01.280Z,85.35
2019-03-29T00:14:31.322Z,85.00
2019-03-29T00:17:01.658Z,85.16
2019-03-29T00:19:31.712Z,86.07
2019-03-29T00:22:01.749Z,85.79
2019-03-29T00:24:31.814Z,85.68
2019-03-29T00:27:01.843Z,86.17
2019-03-29T00:29:31.901Z,85.50
2019-03-29T00:32:01.951Z,85.60
2019-03-29T00:34:32.001Z,85.28
2019-03-29T00:37:02.379Z,85.57
2019-03-29T00:42:11.808Z,86.28
2019-03-29T00:44:41.855Z,85.84
2019-03-29T00:47:11.898Z,86.05
2019-03-29T00:49:41.936Z,85.90
2019-03-29T00:52:11.972Z,85.97
2019-03-29T00:54:42.051Z,85.90
2019-03-29T00:57:12.078Z,86.14
2019-03-29T00:59:42.474Z,86.54
2019-03-29T01:02:12.512Z,85.97
2019-03-29T01:04:42.893Z,86.41
2019-03-29T01:07:12.921Z,85.96
2019-03-29T01:12:22.338Z,86.81
2019-03-29T01:14:52.402Z,86.49
2019-03-29T01:17:22.449Z,86.65
2019-03-29T01:19:52.824Z,87.49
2019-03-29T01:22:22.857Z,87.79
2019-03-29T01:27:32.615Z,87.05
2019-03-29T01:30:02.773Z,87.07
2019-03-29T01:32:33.281Z,87.40
2019-03-29T01:37:42.579Z,87.21
2019-03-29T01:42:51.997Z,87.78
2019-03-29T01:48:03.922Z,88.75
2019-03-29T01:50:34.991Z,88.78
2019-03-29T01:53:03.999Z,88.70
2019-03-29T01:55:34.057Z,88.53
2019-03-29T01:58:04.102Z,88.32
2019-03-29T02:00:34.153Z,88.83
2019-03-29T02:03:04.189Z,88.10
2019-03-29T02:08:13.623Z,88.01
2019-03-29T02:10:44.025Z,87.85
2019-03-29T02:13:14.059Z,87.58
2019-03-29T02:18:24.027Z,87.67
2019-03-29T02:20:54.326Z,87.69
2019-03-29T02:28:44.842Z,89.58
2019-03-29T02:31:13.495Z,88.86
2019-03-29T02:39:02.281Z,88.22
2019-03-29T02:41:32.316Z,88.27
2019-03-29T02:46:42.400Z,88.29
2019-03-29T02:49:13.164Z,88.20
2019-03-29T02:54:22.214Z,87.99
2019-03-29T02:56:52.244Z,88.10
2019-03-29T03:02:02.218Z,88.13
2019-03-29T03:07:11.645Z,88.77
2019-03-29T03:12:21.404Z,88.23
2019-03-29T03:17:31.129Z,87.70
2019-03-29T03:22:40.956Z,87.82
2019-03-29T03:27:50.613Z,87.74
2019-03-29T03:30:20.659Z,87.65
2019-03-29T03:32:50.736Z,87.99
2019-03-29T03:35:20.751Z,87.96
2019-03-29T03:40:30.468Z,88.16
2019-03-29T03:43:00.510Z,88.16
2019-03-29T03:48:09.909Z,88.39
2019-03-29T03:50:40.093Z,88.22
2019-03-29T03:53:10.008Z,88.90
2019-03-29T03:58:19.423Z,89.04
2019-03-29T04:00:52.564Z,88.62
2019-03-29T04:03:22.589Z,88.89
2019-03-29T04:08:32.013Z,88.72
2019-03-29T04:11:02.390Z,89.40
2019-03-29T04:16:12.250Z,89.93
2019-03-29T04:18:42.318Z,89.71
2019-03-29T04:23:51.740Z,89.97
2019-03-29T04:29:04.717Z,89.91
2019-03-29T04:31:31.216Z,89.99
2019-03-29T04:34:01.257Z,89.74
2019-03-29T04:39:10.945Z,90.86
2019-03-29T04:41:41.271Z,90.23
2019-03-29T04:52:10.044Z,89.68
2019-03-29T04:57:20.074Z,89.81
2019-03-29T05:02:29.850Z,89.56
2019-03-29T05:07:39.288Z,89.19
2019-03-29T05:12:48.700Z,89.37
2019-03-29T05:17:58.117Z,89.45
2019-03-29T05:20:28.163Z,89.28
2019-03-29T05:22:58.196Z,89.15
2019-03-29T05:28:07.617Z,89.41
2019-03-29T05:30:38.011Z,89.31
2019-03-29T05:33:08.050Z,88.95
2019-03-29T05:35:38.101Z,89.10
2019-03-29T05:38:08.145Z,89.23
2019-03-29T05:43:17.558Z,90.37
2019-03-29T05:48:27.280Z,90.79
2019-03-29T05:50:57.328Z,92.51
2019-03-29T05:56:07.017Z,91.13
2019-03-29T05:58:37.055Z,90.61
2019-03-29T06:01:07.468Z,89.89
2019-03-29T06:03:37.503Z,90.54
2019-03-29T06:06:07.898Z,91.76
2019-03-29T06:08:37.950Z,91.22
2019-03-29T06:11:08.354Z,89.59
2019-03-29T06:13:38.392Z,89.42
2019-03-29T06:18:47.812Z,89.19
2019-03-29T06:21:17.864Z,89.72
2019-03-29T06:23:48.487Z,90.27
2019-03-29T06:26:18.446Z,90.13
2019-03-29T06:28:48.578Z,90.62
2019-03-29T06:33:58.276Z,90.02
2019-03-29T06:41:47.433Z,90.11
2019-03-29T06:46:57.225Z,89.98
2019-03-29T06:52:07.367Z,90.12
2019-03-29T06:54:37.690Z,90.32
2019-03-29T06:57:07.754Z,90.24
2019-03-29T06:59:38.126Z,90.04
2019-03-29T07:02:08.169Z,90.27
2019-03-29T07:07:17.574Z,89.71
2019-03-29T07:12:27.060Z,89.31
2019-03-29T07:17:37.017Z,88.98
2019-03-29T07:22:46.425Z,88.83
2019-03-29T07:27:56.135Z,88.68
2019-03-29T07:30:26.176Z,88.73
2019-03-29T07:32:56.569Z,88.75
2019-03-29T07:38:05.980Z,88.91
2019-03-29T07:40:36.014Z,88.16
2019-03-29T07:43:06.060Z,88.26
2019-03-29T07:48:15.732Z,87.58
2019-03-29T07:50:45.767Z,87.03
2019-03-29T07:53:15.812Z,87.47
2019-03-29T08:01:04.890Z,87.66
2019-03-29T08:06:14.635Z,86.99
2019-03-29T08:11:26.469Z,86.76
2019-03-29T08:16:33.496Z,86.00
2019-03-29T08:19:03.536Z,85.69
2019-03-29T08:21:33.617Z,85.56
2019-03-29T08:29:22.406Z,85.37
2019-03-29T08:31:55.354Z,85.51
2019-03-29T08:34:24.568Z,84.99
2019-03-29T08:39:31.939Z,83.82
2019-03-29T08:42:02.010Z,82.55
2019-03-29T08:44:32.052Z,81.72
2019-03-29T08:49:41.768Z,82.29
2019-03-29T08:52:12.095Z,81.70
2019-03-29T08:54:42.154Z,82.90
2019-03-29T08:59:51.879Z,82.24
2019-03-29T09:02:24.907Z,79.66
2019-03-29T09:07:44.028Z,77.08
2019-03-29T09:10:01.430Z,76.19
2019-03-29T09:12:31.882Z,74.50
2019-03-29T09:15:04.044Z,73.29
2019-03-29T09:20:11.712Z,71.25
2019-03-29T09:22:41.790Z,71.56
2019-03-29T09:27:51.241Z,73.65
2019-03-29T09:33:00.665Z,74.67
2019-03-29T09:35:31.103Z,74.97
2019-03-29T09:40:40.528Z,73.19
2019-03-29T09:43:10.589Z,71.00
2019-03-29T09:48:20.365Z,71.30
2019-03-29T09:50:50.918Z,71.38
2019-03-29T09:56:00.106Z,70.12
2019-03-29T10:01:09.544Z,71.57
2019-03-29T10:03:39.595Z,71.76
2019-03-29T10:06:09.988Z,69.91
2019-03-29T10:11:22.142Z,70.61
2019-03-29T10:16:29.832Z,69.22
2019-03-29T10:18:59.897Z,67.25
2019-03-29T10:21:29.940Z,67.88
2019-03-29T10:26:39.663Z,68.51
2019-03-29T10:31:49.190Z,66.85
2019-03-29T10:34:19.238Z,67.44
2019-03-29T10:39:28.670Z,65.90
2019-03-29T10:44:38.092Z,65.22
2019-03-29T10:49:47.505Z,64.70
2019-03-29T10:52:17.550Z,64.82
2019-03-29T10:54:49.935Z,63.84
2019-03-29T10:59:57.049Z,61.61
2019-03-29T11:02:27.079Z,62.30
2019-03-29T11:04:57.148Z,61.39
2019-03-29T11:10:06.531Z,61.41
2019-03-29T11:12:36.565Z,61.52
2019-03-29T11:15:06.951Z,61.19
2019-03-29T11:17:37.045Z,60.03
2019-03-29T11:22:46.814Z,59.10
2019-03-29T11:25:16.866Z,58.95
2019-03-29T11:30:26.268Z,58.59
2019-03-29T11:32:56.310Z,57.35
2019-03-29T11:38:05.996Z,56.01
2019-03-29T11:40:36.020Z,56.16
2019-03-29T11:43:06.086Z,54.38
2019-03-29T11:48:15.860Z,54.16
2019-03-29T11:50:45.878Z,54.79
2019-03-29T11:53:15.954Z,53.66
2019-03-29T12:01:05.581Z,52.55
2019-03-29T12:06:14.413Z,52.29
2019-03-29T12:11:24.170Z,52.08
2019-03-29T12:16:33.591Z,49.88
2019-03-29T12:24:22.415Z,50.36
2019-03-29T12:26:55.042Z,52.56
2019-03-29T12:32:02.209Z,51.75
2019-03-29T12:37:11.954Z,50.33
2019-03-29T12:39:42.002Z,50.90
2019-03-29T12:42:12.048Z,51.68
2019-03-29T12:47:21.472Z,50.83
2019-03-29T12:49:51.541Z,52.32
2019-03-29T12:55:00.974Z,51.83
2019-03-29T13:00:10.425Z,51.34
2019-03-29T13:02:40.465Z,52.51
2019-03-29T13:05:10.532Z,51.80
2019-03-29T13:07:40.563Z,52.05
2019-03-29T13:10:10.613Z,51.31
2019-03-29T13:15:20.021Z,52.88
2019-03-29T13:20:29.473Z,53.28
2019-03-29T13:22:59.517Z,52.22
2019-03-29T13:25:29.565Z,53.48
2019-03-29T13:27:59.770Z,53.47
2019-03-29T13:30:29.667Z,53.10
2019-03-29T13:32:59.713Z,52.97
2019-03-29T13:35:30.123Z,53.38
2019-03-29T13:40:39.532Z,54.37
2019-03-29T13:43:09.580Z,53.90
2019-03-29T13:45:39.919Z,53.88
2019-03-29T13:50:49.674Z,54.17
2019-03-29T13:53:19.737Z,54.63
2019-03-29T13:55:49.791Z,54.04
2019-03-29T14:00:59.203Z,54.99
2019-03-29T14:03:29.582Z,54.91
2019-03-29T14:06:00.010Z,54.78
2019-03-29T14:08:30.098Z,54.94
2019-03-29T14:11:00.143Z,56.13
2019-03-29T14:13:30.260Z,55.69
2019-03-29T14:16:00.322Z,55.26
2019-03-29T14:21:10.235Z,54.01
2019-03-29T14:23:40.266Z,55.24
2019-03-29T14:26:10.324Z,54.68
2019-03-29T14:28:40.363Z,55.32
2019-03-29T14:31:10.714Z,55.27
2019-03-29T14:33:40.726Z,56.02
2019-03-29T14:36:10.825Z,56.77
2019-03-29T14:38:41.190Z,55.26
2019-03-29T14:41:11.246Z,54.33
2019-03-29T14:43:41.282Z,54.63
2019-03-29T14:46:11.323Z,54.93
2019-03-29T14:48:41.383Z,55.67
2019-03-29T14:51:11.434Z,55.39
2019-03-29T14:53:41.478Z,55.81
2019-03-29T14:56:11.533Z,56.19
2019-03-29T14:58:41.586Z,56.93
2019-03-29T15:01:11.630Z,56.05
2019-03-29T15:03:41.668Z,55.36
2019-03-29T15:06:12.059Z,56.30
2019-03-29T15:08:42.391Z,55.42
2019-03-29T15:11:22.205Z,55.56
2019-03-29T15:13:42.809Z,56.20
2019-03-29T15:16:12.870Z,56.85
2019-03-29T15:18:42.912Z,55.66
2019-03-29T15:21:13.268Z,55.99
2019-03-29T15:23:43.591Z,54.98
2019-03-29T15:26:13.641Z,55.27
2019-03-29T15:28:43.930Z,55.83
2019-03-29T15:31:13.985Z,55.11
2019-03-29T15:33:44.376Z,55.72
2019-03-29T15:36:14.701Z,55.97
2019-03-29T15:38:44.744Z,55.99
2019-03-29T15:41:15.135Z,54.79
2019-03-29T15:43:45.460Z,54.78
2019-03-29T15:46:15.774Z,54.48
2019-03-29T15:48:46.107Z,54.86
2019-03-29T15:51:16.176Z,55.28
2019-03-29T15:53:46.213Z,55.62
2019-03-29T15:56:16.266Z,55.70
2019-03-29T15:58:46.634Z,54.82
2019-03-29T16:01:16.626Z,55.53
2019-03-29T16:03:46.666Z,55.65
2019-03-29T16:08:56.380Z,56.07
2019-03-29T16:11:26.786Z,55.72
2019-03-29T16:13:57.129Z,56.64
2019-03-29T16:16:27.159Z,57.10
2019-03-29T16:18:57.201Z,56.95
2019-03-29T16:21:27.245Z,56.51
2019-03-29T16:26:36.657Z,55.80
2019-03-29T16:29:06.684Z,56.96
2019-03-29T16:34:16.392Z,58.24
2019-03-29T16:39:26.174Z,58.72
2019-03-29T16:41:56.232Z,59.00
2019-03-29T16:44:26.295Z,58.08
2019-03-29T16:46:56.335Z,58.41
2019-03-29T16:49:26.388Z,59.71
2019-03-29T16:51:56.483Z,58.53
2019-03-29T16:54:26.518Z,57.10
2019-03-29T16:56:56.581Z,55.33
2019-03-29T16:59:26.678Z,58.10
2019-03-29T17:01:57.022Z,60.89
2019-03-29T17:04:27.051Z,61.93
2019-03-29T17:09:36.466Z,57.83
2019-03-29T17:12:06.782Z,58.85
2019-03-29T17:14:37.153Z,59.70
2019-03-29T17:17:07.437Z,60.62
2019-03-29T17:19:37.761Z,61.49
2019-03-29T17:22:08.087Z,61.61
2019-03-29T17:27:17.845Z,63.51
2019-03-29T17:29:48.385Z,63.88
2019-03-29T17:32:21.426Z,64.27
2019-03-29T17:34:49.072Z,64.81
2019-03-29T17:37:19.332Z,64.58
2019-03-29T17:39:49.368Z,65.17
2019-03-29T17:42:19.440Z,65.70
2019-03-29T17:44:49.477Z,66.28
2019-03-29T17:47:19.800Z,66.53
2019-03-29T17:49:49.848Z,66.94
2019-03-29T17:52:20.284Z,66.93
2019-03-29T17:54:50.678Z,67.24
2019-03-29T18:00:00.450Z,67.61
2019-03-29T18:02:30.498Z,67.56
2019-03-29T18:07:40.518Z,68.01
2019-03-29T18:10:10.554Z,68.07
2019-03-29T18:12:40.958Z,68.33
2019-03-29T18:15:10.986Z,68.53
2019-03-29T18:20:20.766Z,69.13
2019-03-29T18:22:50.804Z,68.84
2019-03-29T18:25:20.849Z,69.08
2019-03-29T18:30:36.029Z,70.23
2019-03-29T18:33:06.084Z,70.04
2019-03-29T18:38:15.478Z,70.34
2019-03-29T18:40:45.506Z,70.54
2019-03-29T18:43:15.553Z,70.65
2019-03-29T18:45:45.588Z,70.75
2019-03-29T18:48:15.982Z,70.88
2019-03-29T18:50:46.015Z,71.11
2019-03-29T18:53:16.081Z,70.97
2019-03-29T18:58:25.770Z,71.37
2019-03-29T19:00:56.114Z,71.26
2019-03-29T19:03:26.153Z,71.52
2019-03-29T19:05:56.188Z,72.15
2019-03-29T19:08:26.235Z,72.32
2019-03-29T19:10:56.576Z,72.62
2019-03-29T19:13:26.993Z,72.63
2019-03-29T19:15:57.040Z,72.25
2019-03-29T19:18:27.087Z,72.87
2019-03-29T19:20:57.139Z,72.96
2019-03-29T19:23:27.194Z,72.74
2019-03-29T19:25:57.228Z,73.31
2019-03-29T19:28:27.607Z,73.44
2019-03-29T19:30:57.656Z,73.02
2019-03-29T19:33:27.702Z,73.33
2019-03-29T19:35:58.076Z,73.56
2019-03-29T19:38:28.395Z,74.09
2019-03-29T19:40:58.468Z,73.70
2019-03-29T19:43:28.815Z,73.39
2019-03-29T19:45:58.859Z,73.33
2019-03-29T19:48:28.902Z,73.52
2019-03-29T19:50:58.937Z,73.94
2019-03-29T19:53:29.002Z,73.81
2019-03-29T19:58:39.049Z,74.28
2019-03-29T20:01:09.075Z,74.20
2019-03-29T20:03:39.124Z,74.03
2019-03-29T20:06:09.402Z,74.16
2019-03-29T20:08:39.716Z,74.17
2019-03-29T20:11:09.744Z,74.23
2019-03-29T20:13:39.791Z,74.66
2019-03-29T20:16:09.832Z,74.61
2019-03-29T20:18:40.214Z,74.91
2019-03-29T20:21:10.515Z,74.58
2019-03-29T20:23:40.563Z,74.65
2019-03-29T20:26:10.588Z,74.84
2019-03-29T20:28:40.636Z,74.85
2019-03-29T20:31:10.674Z,75.02
2019-03-29T20:33:40.713Z,75.03
2019-03-29T20:38:50.396Z,76.11
2019-03-29T20:43:59.789Z,76.62
2019-03-29T20:46:29.828Z,76.69
2019-03-29T20:48:59.925Z,76.62
2019-03-29T20:51:30.286Z,76.44
2019-03-29T20:54:00.586Z,76.18
2019-03-29T20:56:30.911Z,76.31
2019-03-29T21:01:40.618Z,76.71
2019-03-29T21:04:10.668Z,76.70
2019-03-29T21:06:40.736Z,77.20
2019-03-29T21:09:11.129Z,77.45
2019-03-29T21:11:41.227Z,77.09
2019-03-29T21:14:11.261Z,76.88
2019-03-29T21:19:20.700Z,76.65
2019-03-29T21:21:51.028Z,76.63
2019-03-29T21:24:21.087Z,76.94
2019-03-29T21:26:51.119Z,77.66
2019-03-29T21:29:21.164Z,77.70
2019-03-29T21:34:30.563Z,77.70
2019-03-29T21:37:00.600Z,78.11
2019-03-29T21:39:31.331Z,77.95
2019-03-29T21:44:40.047Z,78.93
2019-03-29T21:49:49.490Z,78.25
2019-03-29T21:52:19.495Z,79.03
2019-03-29T21:54:49.955Z,78.24
2019-03-29T21:57:20.072Z,78.08
2019-03-29T22:02:29.706Z,78.23
2019-03-29T22:04:59.760Z,78.21
2019-03-29T22:10:09.559Z,78.02
2019-03-29T22:12:42.804Z,77.80
2019-03-29T22:17:48.985Z,78.62
2019-03-29T22:22:58.402Z,78.95
2019-03-29T22:28:07.805Z,79.01
2019-03-29T22:30:37.835Z,79.04
2019-03-29T22:33:07.967Z,79.50
2019-03-29T22:35:38.011Z,79.45
2019-03-29T22:38:08.031Z,79.76
2019-03-29T22:43:17.441Z,80.20
2019-03-29T22:45:47.459Z,79.88
2019-03-29T22:48:17.486Z,79.48
2019-03-29T22:50:47.625Z,79.47
2019-03-29T22:53:17.682Z,79.69
2019-03-29T22:55:47.726Z,80.02
2019-03-29T22:58:17.770Z,80.23
2019-03-29T23:03:27.171Z,80.65
2019-03-29T23:05:57.475Z,80.58
2019-03-29T23:08:27.529Z,79.87
2019-03-29T23:10:57.857Z,80.10
2019-03-29T23:13:27.882Z,80.35
2019-03-29T23:15:57.966Z,80.30
2019-03-29T23:18:28.001Z,80.22
2019-03-29T23:20:58.019Z,80.37
2019-03-29T23:26:07.787Z,80.07
2019-03-29T23:28:37.820Z,80.32
2019-03-29T23:31:07.861Z,80.00
2019-03-29T23:33:38.223Z,80.04
2019-03-29T23:38:47.630Z,80.20
2019-03-29T23:41:17.996Z,80.26
2019-03-29T23:43:48.046Z,80.11
2019-03-29T23:46:18.068Z,80.24
2019-03-29T23:51:27.470Z,80.71
2019-03-29T23:53:57.803Z,80.35
2019-03-29T23:56:27.859Z,80.22
2019-03-29T23:58:58.556Z,80.24
